createdAt,value
2022-08-28T00:00:31.494Z,0.00
2022-08-28T00:01:31.029Z,0.00
2022-08-28T00:02:30.983Z,0.00
2022-08-28T00:03:30.975Z,0.00
2022-08-28T00:04:31.041Z,0.00
2022-08-28T00:05:30.974Z,0.00
2022-08-28T00:06:30.912Z,0.00
2022-08-28T00:07:30.894Z,0.00
2022-08-28T00:08:30.939Z,0.00
2022-08-28T00:09:30.914Z,0.00
2022-08-28T00:10:30.960Z,0.00
2022-08-28T00:11:30.863Z,0.00
2022-08-28T00:12:32.076Z,0.00
2022-08-28T00:13:30.899Z,0.00
2022-08-28T00:14:30.850Z,0.00
2022-08-28T00:15:30.804Z,0.00
2022-08-28T00:16:30.836Z,0.00
2022-08-28T00:17:30.760Z,0.00
2022-08-28T00:18:30.741Z,0.00
2022-08-28T00:19:31.530Z,0.00
2022-08-28T00:20:30.789Z,0.00
2022-08-28T00:21:30.758Z,0.00
2022-08-28T00:22:31.632Z,0.00
2022-08-28T00:23:38.794Z,0.00
2022-08-28T00:24:31.689Z,0.00
2022-08-28T00:25:31.197Z,0.00
2022-08-28T00:26:30.731Z,0.00
2022-08-28T00:27:30.808Z,0.00
2022-08-28T00:28:30.653Z,0.00
2022-08-28T00:29:30.607Z,0.00
2022-08-28T00:30:30.625Z,0.00
2022-08-28T00:31:30.671Z,0.00
2022-08-28T00:32:30.599Z,0.00
2022-08-28T00:33:30.604Z,0.00
2022-08-28T00:34:33.099Z,0.00
2022-08-28T00:35:30.843Z,0.00
2022-08-28T00:36:30.625Z,0.00
2022-08-28T00:37:30.823Z,0.00
2022-08-28T00:38:30.724Z,0.00
2022-08-28T00:39:30.474Z,0.00
2022-08-28T00:40:33.002Z,0.00
2022-08-28T00:41:30.493Z,0.00
2022-08-28T00:42:30.442Z,0.00
2022-08-28T00:43:30.515Z,0.00
2022-08-28T00:44:30.417Z,0.00
2022-08-28T00:45:30.446Z,0.00
2022-08-28T00:46:30.472Z,0.00
2022-08-28T00:47:30.401Z,0.00
2022-08-28T00:48:30.585Z,0.00
2022-08-28T00:49:30.374Z,0.00
2022-08-28T00:50:30.492Z,0.00
2022-08-28T00:51:31.407Z,0.00
2022-08-28T00:52:30.380Z,0.00
2022-08-28T00:53:33.134Z,0.00
2022-08-28T00:54:30.436Z,0.00
2022-08-28T00:55:30.277Z,0.00
2022-08-28T00:56:30.264Z,0.00
2022-08-28T00:57:30.258Z,0.00
2022-08-28T00:58:30.288Z,0.00
2022-08-28T00:59:30.348Z,0.00
2022-08-28T01:00:30.218Z,0.00
2022-08-28T01:01:30.261Z,0.00
2022-08-28T01:02:30.260Z,0.00
2022-08-28T01:03:30.197Z,0.00
2022-08-28T01:04:30.212Z,0.00
2022-08-28T01:05:30.151Z,0.00
2022-08-28T01:06:30.192Z,0.00
2022-08-28T01:07:30.159Z,0.00
2022-08-28T01:08:30.344Z,0.00
2022-08-28T01:09:30.215Z,0.00
2022-08-28T01:10:30.128Z,0.00
2022-08-28T01:11:30.143Z,0.00
2022-08-28T01:12:30.143Z,0.00
2022-08-28T01:13:30.090Z,0.00
2022-08-28T01:14:30.043Z,0.00
2022-08-28T01:15:30.138Z,0.00
2022-08-28T01:16:32.968Z,0.00
2022-08-28T01:17:30.131Z,0.00
2022-08-28T01:18:30.001Z,0.00
2022-08-28T01:19:30.071Z,0.00
2022-08-28T01:20:29.985Z,0.00
2022-08-28T01:21:30.083Z,0.00
2022-08-28T01:22:30.947Z,0.00
2022-08-28T01:23:29.915Z,0.00
2022-08-28T01:24:29.904Z,0.00
2022-08-28T01:25:29.903Z,0.00
2022-08-28T01:26:29.946Z,0.00
2022-08-28T01:27:30.004Z,0.00
2022-08-28T01:28:29.892Z,0.00
2022-08-28T01:29:30.832Z,0.00
2022-08-28T01:30:29.885Z,0.00
2022-08-28T01:31:29.903Z,0.00
2022-08-28T01:32:29.827Z,0.00
2022-08-28T01:33:29.822Z,0.00
2022-08-28T01:34:29.839Z,0.00
2022-08-28T01:35:29.778Z,0.00
2022-08-28T01:36:29.819Z,0.00
2022-08-28T01:37:29.766Z,0.00
2022-08-28T01:38:29.851Z,0.00
2022-08-28T01:39:29.887Z,0.00
2022-08-28T01:40:29.953Z,0.00
2022-08-28T01:41:29.703Z,0.00
2022-08-28T01:42:30.606Z,0.00
2022-08-28T01:43:29.658Z,0.00
2022-08-28T01:44:29.711Z,0.00
2022-08-28T01:45:29.650Z,0.00
2022-08-28T01:46:29.705Z,0.00
2022-08-28T01:47:29.677Z,0.00
2022-08-28T01:48:29.598Z,0.00
2022-08-28T01:49:29.609Z,0.00
2022-08-28T01:50:29.603Z,0.00
2022-08-28T01:51:29.574Z,0.00
2022-08-28T01:52:30.691Z,0.00
2022-08-28T01:53:32.621Z,0.00
2022-08-28T01:54:29.722Z,0.00
2022-08-28T01:55:29.530Z,0.00
2022-08-28T01:56:29.543Z,0.00
2022-08-28T01:57:29.492Z,0.00
2022-08-28T01:58:30.230Z,0.00
2022-08-28T01:59:29.473Z,0.00
2022-08-28T02:00:29.471Z,0.00
2022-08-28T02:01:29.500Z,0.00
2022-08-28T02:02:29.436Z,0.00
2022-08-28T02:03:29.411Z,0.00
2022-08-28T02:04:31.784Z,0.00
2022-08-28T02:05:29.515Z,0.00
2022-08-28T02:06:30.355Z,0.00
2022-08-28T02:07:29.547Z,0.00
2022-08-28T02:08:29.387Z,0.00
2022-08-28T02:09:29.318Z,0.00
2022-08-28T02:10:29.314Z,0.00
2022-08-28T02:11:29.296Z,0.00
2022-08-28T02:12:29.297Z,0.00
2022-08-28T02:13:29.671Z,0.00
2022-08-28T02:14:29.256Z,0.00
2022-08-28T02:15:29.315Z,0.00
2022-08-28T02:16:29.228Z,0.00
2022-08-28T02:17:29.439Z,0.00
2022-08-28T02:18:29.788Z,0.00
2022-08-28T02:19:29.553Z,0.00
2022-08-28T02:20:30.034Z,0.00
2022-08-28T02:21:29.180Z,0.00
2022-08-28T02:22:29.175Z,0.00
2022-08-28T02:23:29.138Z,0.00
2022-08-28T02:24:29.199Z,0.00
2022-08-28T02:25:29.116Z,0.00
2022-08-28T02:26:29.106Z,0.00
2022-08-28T02:27:29.110Z,0.00
2022-08-28T02:28:29.182Z,0.00
2022-08-28T02:29:29.063Z,0.00
2022-08-28T02:30:30.103Z,0.00
2022-08-28T02:31:29.670Z,0.00
2022-08-28T02:32:29.060Z,0.00
2022-08-28T02:33:29.010Z,0.00
2022-08-28T02:34:29.045Z,0.00
2022-08-28T02:35:29.022Z,0.00
2022-08-28T02:36:28.983Z,0.00
2022-08-28T02:37:29.036Z,0.00
2022-08-28T02:38:28.955Z,0.00
2022-08-28T02:39:28.964Z,0.00
2022-08-28T02:40:28.958Z,0.00
2022-08-28T02:41:29.002Z,0.00
2022-08-28T02:42:28.948Z,0.00
2022-08-28T02:43:29.152Z,0.00
2022-08-28T02:44:29.777Z,0.00
2022-08-28T02:45:29.557Z,0.00
2022-08-28T02:46:28.910Z,0.00
2022-08-28T02:47:28.903Z,0.00
2022-08-28T02:48:28.832Z,0.00
2022-08-28T02:49:31.288Z,0.00
2022-08-28T02:50:29.783Z,0.00
2022-08-28T02:51:28.801Z,0.00
2022-08-28T02:52:28.779Z,0.00
2022-08-28T02:53:28.770Z,0.00
2022-08-28T02:54:28.732Z,0.00
2022-08-28T02:55:33.598Z,0.00
2022-08-28T02:56:29.731Z,0.00
2022-08-28T02:57:28.716Z,0.00
2022-08-28T02:58:28.698Z,0.00
2022-08-28T02:59:28.699Z,0.00
2022-08-28T03:00:28.680Z,0.00
2022-08-28T03:01:28.717Z,0.00
2022-08-28T03:02:28.698Z,0.00
2022-08-28T03:03:28.685Z,0.00
2022-08-28T03:04:28.608Z,0.00
2022-08-28T03:05:28.595Z,0.00
2022-08-28T03:06:28.583Z,0.00
2022-08-28T03:07:28.565Z,0.00
2022-08-28T03:08:28.588Z,0.00
2022-08-28T03:09:28.569Z,0.00
2022-08-28T03:10:28.603Z,0.00
2022-08-28T03:11:29.750Z,0.00
2022-08-28T03:12:28.499Z,0.00
2022-08-28T03:13:28.551Z,0.00
2022-08-28T03:14:28.523Z,0.00
2022-08-28T03:15:28.492Z,0.00
2022-08-28T03:16:28.528Z,0.00
2022-08-28T03:17:28.462Z,0.00
2022-08-28T03:18:28.471Z,0.00
2022-08-28T03:19:28.544Z,0.00
2022-08-28T03:20:28.492Z,0.00
2022-08-28T03:21:28.391Z,0.00
2022-08-28T03:22:28.401Z,0.00
2022-08-28T03:23:28.879Z,0.00
2022-08-28T03:24:28.405Z,0.00
2022-08-28T03:25:28.351Z,0.00
2022-08-28T03:26:28.338Z,0.00
2022-08-28T03:27:29.053Z,0.00
2022-08-28T03:28:28.290Z,0.00
2022-08-28T03:29:28.324Z,0.00
2022-08-28T03:30:28.318Z,0.00
2022-08-28T03:31:28.255Z,0.00
2022-08-28T03:32:29.341Z,0.00
2022-08-28T03:33:28.383Z,0.00
2022-08-28T03:34:28.294Z,0.00
2022-08-28T03:35:29.488Z,0.00
2022-08-28T03:36:28.227Z,0.00
2022-08-28T03:37:28.220Z,0.00
2022-08-28T03:38:28.208Z,0.00
2022-08-28T03:39:28.177Z,0.00
2022-08-28T03:40:28.258Z,0.00
2022-08-28T03:41:28.129Z,0.00
2022-08-28T03:42:28.117Z,0.00
2022-08-28T03:43:28.168Z,0.00
2022-08-28T03:44:28.179Z,0.00
2022-08-28T03:45:28.071Z,0.00
2022-08-28T03:46:29.551Z,0.00
2022-08-28T03:47:28.089Z,0.00
2022-08-28T03:48:28.075Z,0.00
2022-08-28T03:49:28.108Z,0.00
2022-08-28T03:50:28.484Z,0.00
2022-08-28T03:51:29.527Z,0.00
2022-08-28T03:52:27.986Z,0.00
2022-08-28T03:53:28.029Z,0.00
2022-08-28T03:54:28.004Z,0.00
2022-08-28T03:55:28.019Z,0.00
2022-08-28T03:56:27.930Z,0.00
2022-08-28T03:57:27.933Z,0.00
2022-08-28T03:58:27.940Z,0.00
2022-08-28T03:59:29.794Z,0.00
2022-08-28T04:00:28.889Z,0.00
2022-08-28T04:01:28.118Z,0.00
2022-08-28T04:02:27.911Z,0.00
2022-08-28T04:03:27.901Z,0.00
2022-08-28T04:04:27.947Z,0.00
2022-08-28T04:05:27.846Z,0.00
2022-08-28T04:06:27.814Z,0.00
2022-08-28T04:07:27.840Z,0.00
2022-08-28T04:08:27.782Z,0.00
2022-08-28T04:09:27.803Z,0.00
2022-08-28T04:10:27.775Z,0.00
2022-08-28T04:11:27.736Z,0.00
2022-08-28T04:12:27.755Z,0.00
2022-08-28T04:13:27.716Z,0.00
2022-08-28T04:14:27.715Z,0.00
2022-08-28T04:15:27.746Z,5.62
2022-08-28T04:16:27.763Z,5.62
2022-08-28T04:17:27.656Z,5.62
2022-08-28T04:18:27.663Z,5.62
2022-08-28T04:19:27.677Z,5.62
2022-08-28T04:20:27.655Z,5.62
2022-08-28T04:21:27.628Z,5.62
2022-08-28T04:22:27.603Z,11.25
2022-08-28T04:23:27.579Z,11.25
2022-08-28T04:24:27.579Z,11.25
2022-08-28T04:25:27.561Z,11.25
2022-08-28T04:26:27.580Z,11.25
2022-08-28T04:27:27.608Z,11.25
2022-08-28T04:28:27.538Z,16.88
2022-08-28T04:29:27.511Z,16.88
2022-08-28T04:30:27.560Z,16.88
2022-08-28T04:31:32.144Z,16.88
2022-08-28T04:32:28.548Z,22.50
2022-08-28T04:33:27.459Z,22.50
2022-08-28T04:34:27.467Z,22.50
2022-08-28T04:35:27.431Z,22.50
2022-08-28T04:36:27.431Z,28.12
2022-08-28T04:37:27.851Z,28.12
2022-08-28T04:38:27.410Z,28.12
2022-08-28T04:39:27.412Z,33.75
2022-08-28T04:40:27.437Z,33.75
2022-08-28T04:41:27.499Z,33.75
2022-08-28T04:42:27.405Z,33.75
2022-08-28T04:43:27.452Z,39.38
2022-08-28T04:44:27.452Z,39.38
2022-08-28T04:45:27.404Z,45.00
2022-08-28T04:46:31.026Z,45.00
2022-08-28T04:47:27.363Z,45.00
2022-08-28T04:48:27.283Z,50.62
2022-08-28T04:49:27.258Z,50.62
2022-08-28T04:50:27.268Z,56.25
2022-08-28T04:51:27.344Z,56.25
2022-08-28T04:52:27.267Z,56.25
2022-08-28T04:53:27.438Z,61.88
2022-08-28T04:54:27.194Z,61.88
2022-08-28T04:55:53.908Z,61.88
2022-08-28T04:56:28.236Z,67.50
2022-08-28T04:57:27.157Z,67.50
2022-08-28T04:58:27.194Z,73.12
2022-08-28T04:59:27.127Z,73.12
2022-08-28T05:00:27.147Z,73.12
2022-08-28T05:01:27.167Z,78.75
2022-08-28T05:02:27.253Z,78.75
2022-08-28T05:03:27.168Z,78.75
2022-08-28T05:04:27.074Z,84.38
2022-08-28T05:05:27.167Z,84.38
2022-08-28T05:06:27.054Z,84.38
2022-08-28T05:07:27.015Z,90.00
2022-08-28T05:08:27.027Z,90.00
2022-08-28T05:09:27.008Z,90.00
2022-08-28T05:10:26.999Z,95.62
2022-08-28T05:11:34.395Z,95.62
2022-08-28T05:12:27.970Z,95.62
2022-08-28T05:13:26.988Z,101.25
2022-08-28T05:14:26.979Z,101.25
2022-08-28T05:15:28.080Z,101.25
2022-08-28T05:16:27.077Z,101.25
2022-08-28T05:17:26.989Z,106.88
2022-08-28T05:18:27.918Z,106.88
2022-08-28T05:19:26.861Z,106.88
2022-08-28T05:20:26.849Z,112.50
2022-08-28T05:21:26.873Z,112.50
2022-08-28T05:22:26.853Z,112.50
2022-08-28T05:23:26.922Z,118.12
2022-08-28T05:24:26.798Z,118.12
2022-08-28T05:25:26.779Z,118.12
2022-08-28T05:26:28.298Z,123.75
2022-08-28T05:27:26.783Z,123.75
2022-08-28T05:28:26.811Z,123.75
2022-08-28T05:29:26.763Z,123.75
2022-08-28T05:30:26.756Z,129.38
2022-08-28T05:31:26.775Z,129.38
2022-08-28T05:32:26.760Z,129.38
2022-08-28T05:33:26.703Z,129.38
2022-08-28T05:34:26.660Z,135.00
2022-08-28T05:35:26.694Z,135.00
2022-08-28T05:36:32.742Z,135.00
2022-08-28T05:37:27.637Z,135.00
2022-08-28T05:38:26.667Z,135.00
2022-08-28T05:39:26.614Z,140.62
2022-08-28T05:40:26.693Z,140.62
2022-08-28T05:41:26.614Z,140.62
2022-08-28T05:42:28.833Z,140.62
2022-08-28T05:43:26.577Z,146.25
2022-08-28T05:44:26.548Z,146.25
2022-08-28T05:45:26.537Z,146.25
2022-08-28T05:46:26.518Z,146.25
2022-08-28T05:47:26.509Z,151.88
2022-08-28T05:48:26.527Z,151.88
2022-08-28T05:49:26.469Z,151.88
2022-08-28T05:50:26.456Z,151.88
2022-08-28T05:51:26.448Z,157.50
2022-08-28T05:52:26.438Z,157.50
2022-08-28T05:53:26.430Z,157.50
2022-08-28T05:54:27.597Z,157.50
2022-08-28T05:55:26.389Z,157.50
2022-08-28T05:56:26.380Z,163.12
2022-08-28T05:57:26.368Z,163.12
2022-08-28T05:58:26.380Z,163.12
2022-08-28T05:59:26.397Z,163.12
2022-08-28T06:00:26.405Z,163.12
2022-08-28T06:01:26.369Z,163.12
2022-08-28T06:02:26.311Z,168.75
2022-08-28T06:03:26.295Z,168.75
2022-08-28T06:04:26.413Z,168.75
2022-08-28T06:05:26.271Z,168.75
2022-08-28T06:06:26.299Z,168.75
2022-08-28T06:07:26.245Z,174.38
2022-08-28T06:08:26.243Z,174.38
2022-08-28T06:09:29.315Z,174.38
2022-08-28T06:10:26.312Z,174.38
2022-08-28T06:11:26.225Z,174.38
2022-08-28T06:12:26.220Z,174.38
2022-08-28T06:13:26.206Z,174.38
2022-08-28T06:14:26.144Z,180.00
2022-08-28T06:15:26.155Z,180.00
2022-08-28T06:16:26.279Z,174.38
2022-08-28T06:17:26.151Z,174.38
2022-08-28T06:18:26.118Z,174.38
2022-08-28T06:19:26.094Z,180.00
2022-08-28T06:20:26.116Z,180.00
2022-08-28T06:21:26.142Z,180.00
2022-08-28T06:22:26.055Z,180.00
2022-08-28T06:23:26.027Z,180.00
2022-08-28T06:24:26.027Z,180.00
2022-08-28T06:25:26.129Z,185.62
2022-08-28T06:26:25.997Z,185.62
2022-08-28T06:27:25.966Z,185.62
2022-08-28T06:28:26.185Z,185.62
2022-08-28T06:29:25.974Z,191.25
2022-08-28T06:30:25.993Z,196.88
2022-08-28T06:31:28.743Z,196.88
2022-08-28T06:32:27.270Z,196.88
2022-08-28T06:33:25.964Z,202.50
2022-08-28T06:34:25.927Z,225.00
2022-08-28T06:35:25.887Z,230.62
2022-08-28T06:36:25.878Z,230.62
2022-08-28T06:37:25.881Z,247.50
2022-08-28T06:38:25.911Z,241.88
2022-08-28T06:39:25.824Z,225.00
2022-08-28T06:40:25.855Z,213.75
2022-08-28T06:41:25.874Z,213.75
2022-08-28T06:42:25.782Z,241.88
2022-08-28T06:43:25.768Z,292.50
2022-08-28T06:44:26.707Z,281.25
2022-08-28T06:45:25.800Z,292.50
2022-08-28T06:46:25.813Z,360.00
2022-08-28T06:47:25.777Z,376.88
2022-08-28T06:48:25.734Z,376.88
2022-08-28T06:49:25.720Z,376.88
2022-08-28T06:50:25.733Z,365.62
2022-08-28T06:51:25.726Z,365.62
2022-08-28T06:52:25.699Z,354.38
2022-08-28T06:53:25.632Z,360.00
2022-08-28T06:54:25.637Z,348.75
2022-08-28T06:55:25.673Z,343.12
2022-08-28T06:56:27.139Z,337.50
2022-08-28T06:57:25.606Z,354.38
2022-08-28T06:58:25.594Z,354.38
2022-08-28T06:59:26.187Z,365.62
2022-08-28T07:00:25.574Z,371.25
2022-08-28T07:01:25.881Z,388.12
2022-08-28T07:02:28.323Z,382.50
2022-08-28T07:03:25.535Z,376.88
2022-08-28T07:04:25.548Z,388.12
2022-08-28T07:05:25.489Z,393.75
2022-08-28T07:06:25.465Z,393.75
2022-08-28T07:07:32.444Z,382.50
2022-08-28T07:08:26.485Z,382.50
2022-08-28T07:09:25.458Z,376.88
2022-08-28T07:10:27.375Z,405.00
2022-08-28T07:11:25.963Z,405.00
2022-08-28T07:12:25.398Z,410.62
2022-08-28T07:13:25.407Z,399.38
2022-08-28T07:14:25.884Z,405.00
2022-08-28T07:15:25.376Z,382.50
2022-08-28T07:16:25.464Z,371.25
2022-08-28T07:17:25.352Z,399.38
2022-08-28T07:18:25.343Z,405.00
2022-08-28T07:19:25.409Z,399.38
2022-08-28T07:20:25.295Z,388.12
2022-08-28T07:21:25.280Z,382.50
2022-08-28T07:22:25.300Z,388.12
2022-08-28T07:23:25.386Z,382.50
2022-08-28T07:24:25.343Z,388.12
2022-08-28T07:25:25.253Z,405.00
2022-08-28T07:26:25.245Z,416.25
2022-08-28T07:27:25.195Z,433.12
2022-08-28T07:28:25.214Z,472.50
2022-08-28T07:29:25.193Z,466.88
2022-08-28T07:30:25.152Z,455.62
2022-08-28T07:31:25.271Z,450.00
2022-08-28T07:32:25.124Z,433.12
2022-08-28T07:33:25.113Z,421.88
2022-08-28T07:34:26.911Z,427.50
2022-08-28T07:35:25.263Z,433.12
2022-08-28T07:36:29.803Z,438.75
2022-08-28T07:37:26.096Z,455.62
2022-08-28T07:38:25.067Z,438.75
2022-08-28T07:39:25.051Z,427.50
2022-08-28T07:40:25.085Z,433.12
2022-08-28T07:41:25.121Z,455.62
2022-08-28T07:42:25.000Z,455.62
2022-08-28T07:43:25.087Z,450.00
2022-08-28T07:44:25.016Z,461.25
2022-08-28T07:45:24.999Z,472.50
2022-08-28T07:46:25.036Z,472.50
2022-08-28T07:47:24.943Z,489.38
2022-08-28T07:48:25.162Z,478.12
2022-08-28T07:49:24.927Z,472.50
2022-08-28T07:50:24.904Z,461.25
2022-08-28T07:51:26.399Z,461.25
2022-08-28T07:52:25.003Z,472.50
2022-08-28T07:53:24.994Z,500.62
2022-08-28T07:54:24.931Z,489.38
2022-08-28T07:55:24.976Z,472.50
2022-08-28T07:56:24.871Z,483.75
2022-08-28T07:57:24.814Z,455.62
2022-08-28T07:58:25.642Z,427.50
2022-08-28T07:59:24.803Z,421.88
2022-08-28T08:00:24.964Z,416.25
2022-08-28T08:01:25.718Z,416.25
2022-08-28T08:02:24.815Z,410.62
2022-08-28T08:03:24.789Z,427.50
2022-08-28T08:04:24.815Z,450.00
2022-08-28T08:05:24.716Z,461.25
2022-08-28T08:06:24.712Z,438.75
2022-08-28T08:07:24.695Z,421.88
2022-08-28T08:08:24.678Z,399.38
2022-08-28T08:09:24.687Z,388.12
2022-08-28T08:10:24.664Z,382.50
2022-08-28T08:11:24.640Z,393.75
2022-08-28T08:12:24.651Z,337.50
2022-08-28T08:13:24.686Z,303.75
2022-08-28T08:14:25.583Z,343.12
2022-08-28T08:15:28.326Z,337.50
2022-08-28T08:16:25.681Z,303.75
2022-08-28T08:17:24.590Z,264.38
2022-08-28T08:18:24.652Z,264.38
2022-08-28T08:19:24.583Z,298.12
2022-08-28T08:20:24.520Z,286.88
2022-08-28T08:21:29.573Z,264.38
2022-08-28T08:22:25.587Z,258.75
2022-08-28T08:23:24.499Z,264.38
2022-08-28T08:24:24.452Z,264.38
2022-08-28T08:25:24.588Z,270.00
2022-08-28T08:26:24.456Z,253.12
2022-08-28T08:27:24.470Z,230.62
2022-08-28T08:28:24.413Z,202.50
2022-08-28T08:29:24.422Z,202.50
2022-08-28T08:30:24.435Z,208.12
2022-08-28T08:31:24.430Z,208.12
2022-08-28T08:32:24.538Z,213.75
2022-08-28T08:33:24.339Z,225.00
2022-08-28T08:34:24.326Z,225.00
2022-08-28T08:35:24.344Z,225.00
2022-08-28T08:36:24.316Z,230.62
2022-08-28T08:37:24.314Z,247.50
2022-08-28T08:38:24.547Z,309.38
2022-08-28T08:39:24.613Z,416.25
2022-08-28T08:40:24.324Z,405.00
2022-08-28T08:41:24.238Z,348.75
2022-08-28T08:42:24.265Z,354.38
2022-08-28T08:43:24.218Z,371.25
2022-08-28T08:44:24.363Z,309.38
2022-08-28T08:45:25.195Z,270.00
2022-08-28T08:46:24.296Z,270.00
2022-08-28T08:47:24.220Z,303.75
2022-08-28T08:48:24.153Z,315.00
2022-08-28T08:49:25.088Z,298.12
2022-08-28T08:50:24.133Z,281.25
2022-08-28T08:51:24.156Z,264.38
2022-08-28T08:52:24.313Z,270.00
2022-08-28T08:53:24.256Z,258.75
2022-08-28T08:54:24.139Z,247.50
2022-08-28T08:55:24.880Z,247.50
2022-08-28T08:56:24.067Z,264.38
2022-08-28T08:57:25.050Z,286.88
2022-08-28T08:58:24.042Z,348.75
2022-08-28T08:59:24.031Z,410.62
2022-08-28T09:00:23.984Z,388.12
2022-08-28T09:01:24.051Z,365.62
2022-08-28T09:02:26.377Z,416.25
2022-08-28T09:03:25.085Z,433.12
2022-08-28T09:04:23.981Z,360.00
2022-08-28T09:05:23.934Z,337.50
2022-08-28T09:06:23.936Z,343.12
2022-08-28T09:07:23.983Z,371.25
2022-08-28T09:08:24.653Z,421.88
2022-08-28T09:09:24.007Z,438.75
2022-08-28T09:10:23.868Z,427.50
2022-08-28T09:11:23.986Z,466.88
2022-08-28T09:12:23.936Z,466.88
2022-08-28T09:13:24.017Z,388.12
2022-08-28T09:14:26.864Z,331.88
2022-08-28T09:15:24.819Z,298.12
2022-08-28T09:16:23.888Z,303.75
2022-08-28T09:17:23.827Z,315.00
2022-08-28T09:18:23.765Z,298.12
2022-08-28T09:19:23.824Z,286.88
2022-08-28T09:20:30.240Z,281.25
2022-08-28T09:21:28.548Z,281.25
2022-08-28T09:22:23.711Z,292.50
2022-08-28T09:23:23.686Z,320.62
2022-08-28T09:24:23.719Z,354.38
2022-08-28T09:25:23.715Z,433.12
2022-08-28T09:26:23.668Z,466.88
2022-08-28T09:27:23.747Z,382.50
2022-08-28T09:28:23.618Z,360.00
2022-08-28T09:29:23.792Z,371.25
2022-08-28T09:30:23.864Z,337.50
2022-08-28T09:31:23.665Z,270.00
2022-08-28T09:32:23.642Z,236.25
2022-08-28T09:33:23.580Z,225.00
2022-08-28T09:34:23.644Z,225.00
2022-08-28T09:35:12.137Z,208.12
2022-08-28T09:36:12.137Z,225.00
2022-08-28T09:37:13.969Z,253.12
2022-08-28T09:38:12.153Z,315.00
2022-08-28T09:39:12.046Z,365.62
2022-08-28T09:40:12.167Z,376.88
2022-08-28T09:41:12.039Z,393.75
2022-08-28T09:42:12.028Z,427.50
2022-08-28T09:43:11.997Z,416.25
2022-08-28T09:44:12.108Z,382.50
2022-08-28T09:45:11.957Z,303.75
2022-08-28T09:46:12.064Z,270.00
2022-08-28T09:47:11.959Z,270.00
2022-08-28T09:48:11.993Z,258.75
2022-08-28T09:49:11.985Z,247.50
2022-08-28T09:50:11.938Z,230.62
2022-08-28T09:51:11.859Z,208.12
2022-08-28T09:52:11.932Z,230.62
2022-08-28T09:53:11.897Z,253.12
2022-08-28T09:54:12.035Z,275.62
2022-08-28T09:55:11.897Z,298.12
2022-08-28T09:56:11.825Z,315.00
2022-08-28T09:57:11.793Z,326.25
2022-08-28T09:58:12.935Z,320.62
2022-08-28T09:59:11.828Z,270.00
2022-08-28T10:00:11.856Z,230.62
2022-08-28T10:01:12.863Z,208.12
2022-08-28T10:02:11.867Z,208.12
2022-08-28T10:03:12.715Z,213.75
2022-08-28T10:04:11.735Z,230.62
2022-08-28T10:05:11.672Z,236.25
2022-08-28T10:06:11.804Z,241.88
2022-08-28T10:07:11.684Z,253.12
2022-08-28T10:08:11.979Z,264.38
2022-08-28T10:09:11.634Z,275.62
2022-08-28T10:10:11.790Z,275.62
2022-08-28T10:11:11.612Z,281.25
2022-08-28T10:12:11.715Z,292.50
2022-08-28T10:13:11.634Z,275.62
2022-08-28T10:14:11.605Z,275.62
2022-08-28T10:15:11.543Z,264.38
2022-08-28T10:16:11.589Z,264.38
2022-08-28T10:17:11.538Z,281.25
2022-08-28T10:18:11.656Z,337.50
2022-08-28T10:19:11.516Z,416.25
2022-08-28T10:20:11.496Z,410.62
2022-08-28T10:21:11.485Z,348.75
2022-08-28T10:22:12.433Z,303.75
2022-08-28T10:23:15.663Z,258.75
2022-08-28T10:24:12.547Z,225.00
2022-08-28T10:25:11.417Z,230.62
2022-08-28T10:26:11.438Z,225.00
2022-08-28T10:27:11.404Z,225.00
2022-08-28T10:28:11.400Z,225.00
2022-08-28T10:29:11.367Z,247.50
2022-08-28T10:30:13.518Z,275.62
2022-08-28T10:31:11.452Z,315.00
2022-08-28T10:32:11.328Z,360.00
2022-08-28T10:33:11.412Z,376.88
2022-08-28T10:34:11.312Z,365.62
2022-08-28T10:35:11.564Z,331.88
2022-08-28T10:36:28.742Z,348.75
2022-08-28T10:37:12.291Z,354.38
2022-08-28T10:38:11.347Z,354.38
2022-08-28T10:39:11.301Z,371.25
2022-08-28T10:40:12.286Z,410.62
2022-08-28T10:41:11.317Z,365.62
2022-08-28T10:42:11.203Z,298.12
2022-08-28T10:43:11.833Z,258.75
2022-08-28T10:44:11.214Z,241.88
2022-08-28T10:45:11.177Z,241.88
2022-08-28T10:46:11.619Z,253.12
2022-08-28T10:47:11.136Z,270.00
2022-08-28T10:48:11.181Z,264.38
2022-08-28T10:49:11.138Z,270.00
2022-08-28T10:50:11.108Z,315.00
2022-08-28T10:51:11.113Z,382.50
2022-08-28T10:52:11.076Z,427.50
2022-08-28T10:53:11.153Z,444.38
2022-08-28T10:54:11.198Z,438.75
2022-08-28T10:55:11.040Z,365.62
2022-08-28T10:56:11.578Z,286.88
2022-08-28T10:57:11.011Z,225.00
2022-08-28T10:58:24.302Z,213.75
2022-08-28T10:59:12.079Z,208.12
2022-08-28T11:00:11.144Z,196.88
2022-08-28T11:01:11.092Z,202.50
2022-08-28T11:02:10.988Z,213.75
2022-08-28T11:03:27.101Z,202.50
2022-08-28T11:04:12.044Z,208.12
2022-08-28T11:05:10.913Z,225.00
2022-08-28T11:06:10.912Z,241.88
2022-08-28T11:07:10.872Z,275.62
2022-08-28T11:08:10.996Z,326.25
2022-08-28T11:09:10.928Z,371.25
2022-08-28T11:10:10.893Z,376.88
2022-08-28T11:11:10.824Z,354.38
2022-08-28T11:12:10.951Z,365.62
2022-08-28T11:13:10.812Z,388.12
2022-08-28T11:14:10.884Z,421.88
2022-08-28T11:15:10.789Z,410.62
2022-08-28T11:16:10.786Z,376.88
2022-08-28T11:17:10.897Z,331.88
2022-08-28T11:18:10.767Z,309.38
2022-08-28T11:19:10.813Z,309.38
2022-08-28T11:20:10.903Z,320.62
2022-08-28T11:21:11.031Z,315.00
2022-08-28T11:22:10.674Z,331.88
2022-08-28T11:23:10.960Z,348.75
2022-08-28T11:24:10.959Z,376.88
2022-08-28T11:25:10.760Z,376.88
2022-08-28T11:26:10.628Z,348.75
2022-08-28T11:27:10.616Z,309.38
2022-08-28T11:28:10.632Z,258.75
2022-08-28T11:29:10.621Z,213.75
2022-08-28T11:30:10.574Z,202.50
2022-08-28T11:31:10.595Z,196.88
2022-08-28T11:32:11.619Z,196.88
2022-08-28T11:33:10.541Z,191.25
2022-08-28T11:34:10.634Z,191.25
2022-08-28T11:35:10.516Z,191.25
2022-08-28T11:36:10.490Z,191.25
2022-08-28T11:37:10.548Z,208.12
2022-08-28T11:38:10.504Z,196.88
2022-08-28T11:39:10.482Z,213.75
2022-08-28T11:40:10.492Z,219.38
2022-08-28T11:41:10.457Z,230.62
2022-08-28T11:42:10.472Z,253.12
2022-08-28T11:43:10.416Z,303.75
2022-08-28T11:44:10.497Z,337.50
2022-08-28T11:45:10.405Z,360.00
2022-08-28T11:46:10.493Z,376.88
2022-08-28T11:47:10.359Z,365.62
2022-08-28T11:48:10.345Z,331.88
2022-08-28T11:49:10.357Z,292.50
2022-08-28T11:50:10.339Z,258.75
2022-08-28T11:51:10.329Z,225.00
2022-08-28T11:52:10.374Z,208.12
2022-08-28T11:53:10.303Z,202.50
2022-08-28T11:54:10.300Z,202.50
2022-08-28T11:55:10.310Z,202.50
2022-08-28T11:56:10.246Z,208.12
2022-08-28T11:57:10.256Z,208.12
2022-08-28T11:58:40.402Z,208.12
2022-08-28T11:59:40.483Z,208.12
2022-08-28T12:00:43.307Z,208.12
2022-08-28T12:01:40.368Z,208.12
2022-08-28T12:02:40.536Z,213.75
2022-08-28T12:03:40.327Z,219.38
2022-08-28T12:04:40.731Z,219.38
2022-08-28T12:05:40.322Z,219.38
2022-08-28T12:06:40.318Z,219.38
2022-08-28T12:07:40.349Z,219.38
2022-08-28T12:08:40.687Z,225.00
2022-08-28T12:09:40.732Z,225.00
2022-08-28T12:10:40.835Z,230.62
2022-08-28T12:11:41.086Z,241.88
2022-08-28T12:12:40.243Z,219.38
2022-08-28T12:13:40.203Z,208.12
2022-08-28T12:14:40.192Z,225.00
2022-08-28T12:15:40.425Z,247.50
2022-08-28T12:16:40.291Z,264.38
2022-08-28T12:17:40.154Z,281.25
2022-08-28T12:18:40.135Z,298.12
2022-08-28T12:19:41.157Z,331.88
2022-08-28T12:20:40.176Z,343.12
2022-08-28T12:21:40.558Z,348.75
2022-08-28T12:22:40.093Z,298.12
2022-08-28T12:23:40.076Z,264.38
2022-08-28T12:24:40.117Z,270.00
2022-08-28T12:25:40.096Z,270.00
2022-08-28T12:26:40.159Z,253.12
2022-08-28T12:27:40.043Z,264.38
2022-08-28T12:28:40.056Z,303.75
2022-08-28T12:29:40.001Z,348.75
2022-08-28T12:30:40.029Z,331.88
2022-08-28T12:31:40.021Z,298.12
2022-08-28T12:32:39.964Z,247.50
2022-08-28T12:33:39.956Z,213.75
2022-08-28T12:34:40.049Z,208.12
2022-08-28T12:35:39.991Z,213.75
2022-08-28T12:36:39.993Z,208.12
2022-08-28T12:37:51.043Z,208.12
2022-08-28T12:38:40.879Z,208.12
2022-08-28T12:39:40.065Z,213.75
2022-08-28T12:40:39.940Z,225.00
2022-08-28T12:41:39.876Z,247.50
2022-08-28T12:42:39.824Z,270.00
2022-08-28T12:43:43.237Z,298.12
2022-08-28T12:44:40.792Z,315.00
2022-08-28T12:45:39.829Z,303.75
2022-08-28T12:46:39.830Z,286.88